sensor_id;sensor_type;location;lat;lon;timestamp;pressure;altitude;pressure_sealevel;temperature;humidity
25420;BME280;13354;48.174;11.566;2023-11-21T00:01:00;95216.66;;;8.33;81.83
25420;BME280;13354;48.174;11.566;2023-11-21T00:03:29;95226.91;;;8.21;82.78
25420;BME280;13354;48.174;11.566;2023-11-21T00:05:55;95216.22;;;8.30;83.07
25420;BME280;13354;48.174;11.566;2023-11-21T00:08:20;95220.63;;;8.22;83.55
25420;BME280;13354;48.174;11.566;2023-11-21T00:10:46;95212.94;;;8.06;84.89
25420;BME280;13354;48.174;11.566;2023-11-21T00:13:11;95215.78;;;8.05;85.08
25420;BME280;13354;48.174;11.566;2023-11-21T00:15:37;95211.25;;;7.98;85.91
25420;BME280;13354;48.174;11.566;2023-11-21T00:18:03;95222.75;;;7.76;87.96
25420;BME280;13354;48.174;11.566;2023-11-21T00:20:28;95208.00;;;7.96;87.33
25420;BME280;13354;48.174;11.566;2023-11-21T00:22:54;95202.34;;;7.78;88.22
25420;BME280;13354;48.174;11.566;2023-11-21T00:25:19;95190.28;;;7.90;88.83
25420;BME280;13354;48.174;11.566;2023-11-21T00:27:45;95184.50;;;7.80;88.34
25420;BME280;13354;48.174;11.566;2023-11-21T00:30:11;95173.47;;;7.70;89.59
25420;BME280;13354;48.174;11.566;2023-11-21T00:32:37;95167.31;;;7.63;89.68
25420;BME280;13354;48.174;11.566;2023-11-21T00:35:03;95168.38;;;7.68;90.15
25420;BME280;13354;48.174;11.566;2023-11-21T00:37:29;95168.84;;;7.57;90.59
25420;BME280;13354;48.174;11.566;2023-11-21T00:39:54;95155.56;;;7.65;90.52
25420;BME280;13354;48.174;11.566;2023-11-21T00:42:19;95148.22;;;7.61;90.73
25420;BME280;13354;48.174;11.566;2023-11-21T00:44:46;95153.56;;;7.67;90.50
25420;BME280;13354;48.174;11.566;2023-11-21T00:47:11;95153.94;;;7.64;90.68
25420;BME280;13354;48.174;11.566;2023-11-21T00:49:37;95148.09;;;7.69;91.08
25420;BME280;13354;48.174;11.566;2023-11-21T00:52:04;95145.69;;;7.89;89.96
25420;BME280;13354;48.174;11.566;2023-11-21T00:54:30;95159.72;;;7.74;90.11
25420;BME280;13354;48.174;11.566;2023-11-21T00:56:55;95157.66;;;7.91;89.63
25420;BME280;13354;48.174;11.566;2023-11-21T00:59:22;95156.53;;;7.79;89.53
25420;BME280;13354;48.174;11.566;2023-11-21T01:01:48;95150.06;;;7.82;89.67
25420;BME280;13354;48.174;11.566;2023-11-21T01:04:13;95156.59;;;7.86;89.72
25420;BME280;13354;48.174;11.566;2023-11-21T01:06:39;95150.06;;;7.82;89.33
25420;BME280;13354;48.174;11.566;2023-11-21T01:09:04;95153.16;;;7.85;89.54
25420;BME280;13354;48.174;11.566;2023-11-21T01:11:34;95155.09;;;7.98;88.91
25420;BME280;13354;48.174;11.566;2023-11-21T01:14:02;95154.94;;;8.06;88.14
25420;BME280;13354;48.174;11.566;2023-11-21T01:16:28;95157.03;;;8.11;87.33
25420;BME280;13354;48.174;11.566;2023-11-21T01:18:53;95156.66;;;8.14;87.50
25420;BME280;13354;48.174;11.566;2023-11-21T01:21:19;95158.47;;;8.13;87.01
25420;BME280;13354;48.174;11.566;2023-11-21T01:23:44;95166.34;;;8.07;87.25
25420;BME280;13354;48.174;11.566;2023-11-21T01:26:09;95156.16;;;8.04;87.19
25420;BME280;13354;48.174;11.566;2023-11-21T01:28:35;95155.00;;;8.13;86.74
25420;BME280;13354;48.174;11.566;2023-11-21T01:31:00;95159.41;;;8.06;87.31
25420;BME280;13354;48.174;11.566;2023-11-21T01:33:25;95164.75;;;8.12;86.79
25420;BME280;13354;48.174;11.566;2023-11-21T01:35:51;95165.69;;;8.26;86.26
25420;BME280;13354;48.174;11.566;2023-11-21T01:38:19;95165.63;;;8.19;85.95
25420;BME280;13354;48.174;11.566;2023-11-21T01:40:45;95163.94;;;8.12;86.75
25420;BME280;13354;48.174;11.566;2023-11-21T01:43:10;95160.19;;;7.99;87.00
25420;BME280;13354;48.174;11.566;2023-11-21T01:45:35;95170.59;;;8.08;87.11
25420;BME280;13354;48.174;11.566;2023-11-21T01:48:02;95164.38;;;8.15;86.17
25420;BME280;13354;48.174;11.566;2023-11-21T01:50:28;95162.47;;;8.09;85.77
25420;BME280;13354;48.174;11.566;2023-11-21T01:52:54;95162.41;;;8.24;85.82
25420;BME280;13354;48.174;11.566;2023-11-21T01:55:20;95168.28;;;8.41;84.96
25420;BME280;13354;48.174;11.566;2023-11-21T01:57:46;95166.38;;;8.13;84.93
25420;BME280;13354;48.174;11.566;2023-11-21T02:00:12;95178.31;;;8.09;86.37
25420;BME280;13354;48.174;11.566;2023-11-21T02:02:44;95175.88;;;8.08;86.48
25420;BME280;13354;48.174;11.566;2023-11-21T02:05:11;95183.34;;;8.04;86.80
25420;BME280;13354;48.174;11.566;2023-11-21T02:07:40;95187.03;;;8.10;86.83
25420;BME280;13354;48.174;11.566;2023-11-21T02:10:06;95177.41;;;8.23;85.65
25420;BME280;13354;48.174;11.566;2023-11-21T02:12:32;95177.84;;;8.27;83.50
25420;BME280;13354;48.174;11.566;2023-11-21T02:14:58;95186.41;;;8.29;82.86
25420;BME280;13354;48.174;11.566;2023-11-21T02:17:23;95185.59;;;8.29;82.45
25420;BME280;13354;48.174;11.566;2023-11-21T02:19:49;95187.91;;;8.17;82.07
25420;BME280;13354;48.174;11.566;2023-11-21T02:22:17;95189.94;;;8.15;82.23
25420;BME280;13354;48.174;11.566;2023-11-21T02:24:45;95180.19;;;8.15;82.56
25420;BME280;13354;48.174;11.566;2023-11-21T02:27:12;95180.81;;;7.96;83.98
25420;BME280;13354;48.174;11.566;2023-11-21T02:29:38;95187.09;;;7.95;84.81
25420;BME280;13354;48.174;11.566;2023-11-21T02:32:03;95183.97;;;7.85;86.45
25420;BME280;13354;48.174;11.566;2023-11-21T02:34:29;95190.59;;;7.81;86.67
25420;BME280;13354;48.174;11.566;2023-11-21T02:36:54;95180.59;;;7.76;87.73
25420;BME280;13354;48.174;11.566;2023-11-21T02:39:20;95178.75;;;7.70;89.72
25420;BME280;13354;48.174;11.566;2023-11-21T02:41:47;95173.28;;;7.71;89.67
25420;BME280;13354;48.174;11.566;2023-11-21T02:44:12;95175.81;;;7.65;89.84
25420;BME280;13354;48.174;11.566;2023-11-21T02:46:38;95172.13;;;7.59;90.25
25420;BME280;13354;48.174;11.566;2023-11-21T02:49:05;95170.06;;;7.76;89.28
25420;BME280;13354;48.174;11.566;2023-11-21T02:51:36;95168.06;;;7.78;88.82
25420;BME280;13354;48.174;11.566;2023-11-21T02:54:01;95162.47;;;7.66;89.47
25420;BME280;13354;48.174;11.566;2023-11-21T02:56:30;95158.72;;;7.75;90.12
25420;BME280;13354;48.174;11.566;2023-11-21T02:58:56;95149.34;;;7.73;89.51
25420;BME280;13354;48.174;11.566;2023-11-21T03:01:21;95154.44;;;7.74;89.81
25420;BME280;13354;48.174;11.566;2023-11-21T03:03:47;95152.47;;;7.62;90.80
25420;BME280;13354;48.174;11.566;2023-11-21T03:06:16;95146.31;;;7.55;91.81
25420;BME280;13354;48.174;11.566;2023-11-21T03:08:42;95151.63;;;7.76;91.04
25420;BME280;13354;48.174;11.566;2023-11-21T03:11:07;95152.84;;;7.73;90.87
25420;BME280;13354;48.174;11.566;2023-11-21T03:13:33;95144.28;;;7.71;90.75
25420;BME280;13354;48.174;11.566;2023-11-21T03:15:59;95148.38;;;7.74;90.49
25420;BME280;13354;48.174;11.566;2023-11-21T03:18:24;95151.78;;;7.53;91.62
25420;BME280;13354;48.174;11.566;2023-11-21T03:20:52;95146.84;;;7.65;91.72
25420;BME280;13354;48.174;11.566;2023-11-21T03:23:18;95146.69;;;7.66;91.75
25420;BME280;13354;48.174;11.566;2023-11-21T03:25:43;95147.78;;;7.57;91.83
25420;BME280;13354;48.174;11.566;2023-11-21T03:28:09;95139.63;;;7.52;91.61
25420;BME280;13354;48.174;11.566;2023-11-21T03:30:34;95135.13;;;7.67;91.32
25420;BME280;13354;48.174;11.566;2023-11-21T03:33:00;95140.28;;;7.75;90.98
25420;BME280;13354;48.174;11.566;2023-11-21T03:35:25;95139.47;;;7.96;89.88
25420;BME280;13354;48.174;11.566;2023-11-21T03:37:51;95142.03;;;7.68;90.04
25420;BME280;13354;48.174;11.566;2023-11-21T03:40:17;95146.72;;;7.73;90.53
25420;BME280;13354;48.174;11.566;2023-11-21T03:42:42;95142.66;;;7.70;90.39
25420;BME280;13354;48.174;11.566;2023-11-21T03:45:08;95140.59;;;7.51;91.45
25420;BME280;13354;48.174;11.566;2023-11-21T03:47:34;95142.78;;;7.62;90.97
25420;BME280;13354;48.174;11.566;2023-11-21T03:49:59;95137.13;;;7.65;91.16
25420;BME280;13354;48.174;11.566;2023-11-21T03:52:25;95135.81;;;7.76;90.52
25420;BME280;13354;48.174;11.566;2023-11-21T03:54:50;95136.13;;;7.88;89.50
25420;BME280;13354;48.174;11.566;2023-11-21T03:57:16;95138.22;;;7.92;88.65
25420;BME280;13354;48.174;11.566;2023-11-21T03:59:44;95139.66;;;7.73;89.20
25420;BME280;13354;48.174;11.566;2023-11-21T04:02:09;95137.63;;;7.75;89.07
25420;BME280;13354;48.174;11.566;2023-11-21T04:04:35;95146.84;;;7.65;89.44
25420;BME280;13354;48.174;11.566;2023-11-21T04:07:01;95142.13;;;7.60;89.65
25420;BME280;13354;48.174;11.566;2023-11-21T04:09:27;95141.34;;;7.60;89.35
25420;BME280;13354;48.174;11.566;2023-11-21T04:11:53;95140.75;;;7.64;89.17
25420;BME280;13354;48.174;11.566;2023-11-21T04:14:19;95140.28;;;7.75;88.67
25420;BME280;13354;48.174;11.566;2023-11-21T04:16:44;95139.88;;;7.57;89.23
25420;BME280;13354;48.174;11.566;2023-11-21T04:19:10;95140.06;;;7.56;89.13
25420;BME280;13354;48.174;11.566;2023-11-21T04:21:36;95142.97;;;7.61;88.54
25420;BME280;13354;48.174;11.566;2023-11-21T04:24:02;95137.69;;;7.61;89.06
25420;BME280;13354;48.174;11.566;2023-11-21T04:26:27;95143.72;;;7.76;88.52
25420;BME280;13354;48.174;11.566;2023-11-21T04:28:52;95145.78;;;7.59;88.76
25420;BME280;13354;48.174;11.566;2023-11-21T04:31:18;95153.00;;;7.72;88.92
25420;BME280;13354;48.174;11.566;2023-11-21T04:33:43;95146.34;;;7.76;88.01
25420;BME280;13354;48.174;11.566;2023-11-21T04:36:10;95148.16;;;7.75;87.98
25420;BME280;13354;48.174;11.566;2023-11-21T04:38:35;95154.91;;;7.78;87.53
25420;BME280;13354;48.174;11.566;2023-11-21T04:41:01;95154.94;;;7.63;87.78
25420;BME280;13354;48.174;11.566;2023-11-21T04:43:26;95152.88;;;7.80;87.13
25420;BME280;13354;48.174;11.566;2023-11-21T04:45:51;95152.13;;;7.65;87.72
25420;BME280;13354;48.174;11.566;2023-11-21T04:48:17;95150.78;;;7.54;87.98
25420;BME280;13354;48.174;11.566;2023-11-21T04:50:42;95151.25;;;7.43;88.45
25420;BME280;13354;48.174;11.566;2023-11-21T04:53:07;95149.41;;;7.58;88.36
25420;BME280;13354;48.174;11.566;2023-11-21T04:55:33;95153.50;;;7.61;88.42
25420;BME280;13354;48.174;11.566;2023-11-21T04:57:58;95151.22;;;7.58;89.34
25420;BME280;13354;48.174;11.566;2023-11-21T05:00:23;95155.00;;;7.48;89.56
25420;BME280;13354;48.174;11.566;2023-11-21T05:02:49;95161.69;;;7.51;89.81
25420;BME280;13354;48.174;11.566;2023-11-21T05:05:14;95163.34;;;7.52;90.06
25420;BME280;13354;48.174;11.566;2023-11-21T05:07:40;95159.16;;;7.43;89.84
25420;BME280;13354;48.174;11.566;2023-11-21T05:10:07;95150.09;;;7.45;90.31
25420;BME280;13354;48.174;11.566;2023-11-21T05:12:35;95160.88;;;7.50;90.41
25420;BME280;13354;48.174;11.566;2023-11-21T05:15:04;95153.16;;;7.49;90.41
25420;BME280;13354;48.174;11.566;2023-11-21T05:17:35;95153.38;;;7.47;89.82
25420;BME280;13354;48.174;11.566;2023-11-21T05:20:00;95155.16;;;7.47;90.08
25420;BME280;13354;48.174;11.566;2023-11-21T05:22:28;95154.66;;;7.58;90.15
25420;BME280;13354;48.174;11.566;2023-11-21T05:24:54;95163.78;;;7.56;89.48
25420;BME280;13354;48.174;11.566;2023-11-21T05:27:19;95165.63;;;7.40;90.28
25420;BME280;13354;48.174;11.566;2023-11-21T05:29:44;95172.69;;;7.40;90.58
25420;BME280;13354;48.174;11.566;2023-11-21T05:32:10;95163.25;;;7.45;90.17
25420;BME280;13354;48.174;11.566;2023-11-21T05:34:35;95166.94;;;7.51;90.17
25420;BME280;13354;48.174;11.566;2023-11-21T05:37:00;95162.59;;;7.43;90.07
25420;BME280;13354;48.174;11.566;2023-11-21T05:39:25;95167.09;;;7.64;89.82
25420;BME280;13354;48.174;11.566;2023-11-21T05:41:53;95164.41;;;7.58;89.72
25420;BME280;13354;48.174;11.566;2023-11-21T05:44:19;95166.22;;;7.57;90.01
25420;BME280;13354;48.174;11.566;2023-11-21T05:46:44;95173.09;;;7.58;89.45
25420;BME280;13354;48.174;11.566;2023-11-21T05:49:10;95179.59;;;7.56;89.42
25420;BME280;13354;48.174;11.566;2023-11-21T05:51:37;95175.81;;;7.65;89.31
25420;BME280;13354;48.174;11.566;2023-11-21T05:54:02;95173.09;;;7.58;88.33
25420;BME280;13354;48.174;11.566;2023-11-21T05:56:28;95183.47;;;7.60;88.30
25420;BME280;13354;48.174;11.566;2023-11-21T05:58:53;95180.50;;;7.84;87.20
25420;BME280;13354;48.174;11.566;2023-11-21T06:01:18;95182.19;;;7.70;87.23
25420;BME280;13354;48.174;11.566;2023-11-21T06:03:44;95178.47;;;7.65;87.40
25420;BME280;13354;48.174;11.566;2023-11-21T06:06:10;95183.66;;;7.58;87.75
25420;BME280;13354;48.174;11.566;2023-11-21T06:08:36;95175.56;;;7.60;87.16
25420;BME280;13354;48.174;11.566;2023-11-21T06:11:01;95185.25;;;7.38;87.54
25420;BME280;13354;48.174;11.566;2023-11-21T06:13:27;95188.94;;;7.43;87.67
25420;BME280;13354;48.174;11.566;2023-11-21T06:15:53;95187.78;;;7.46;88.13
25420;BME280;13354;48.174;11.566;2023-11-21T06:18:18;95192.78;;;7.41;88.21
25420;BME280;13354;48.174;11.566;2023-11-21T06:20:45;95197.75;;;7.50;87.72
25420;BME280;13354;48.174;11.566;2023-11-21T06:23:10;95201.94;;;7.45;87.38
25420;BME280;13354;48.174;11.566;2023-11-21T06:25:36;95202.56;;;7.47;87.06
25420;BME280;13354;48.174;11.566;2023-11-21T06:28:02;95207.78;;;7.40;87.39
25420;BME280;13354;48.174;11.566;2023-11-21T06:30:27;95211.94;;;7.35;87.47
25420;BME280;13354;48.174;11.566;2023-11-21T06:32:54;95209.31;;;7.35;87.40
25420;BME280;13354;48.174;11.566;2023-11-21T06:35:20;95202.69;;;7.24;87.79
25420;BME280;13354;48.174;11.566;2023-11-21T06:37:46;95206.13;;;7.39;87.38
25420;BME280;13354;48.174;11.566;2023-11-21T06:40:13;95207.94;;;7.39;87.40
25420;BME280;13354;48.174;11.566;2023-11-21T06:42:43;95212.50;;;7.30;87.47
25420;BME280;13354;48.174;11.566;2023-11-21T06:45:09;95212.47;;;7.45;86.91
25420;BME280;13354;48.174;11.566;2023-11-21T06:47:35;95217.38;;;7.48;86.32
25420;BME280;13354;48.174;11.566;2023-11-21T06:50:01;95219.25;;;7.69;85.97
25420;BME280;13354;48.174;11.566;2023-11-21T06:52:26;95219.88;;;7.71;85.73
25420;BME280;13354;48.174;11.566;2023-11-21T06:54:52;95222.72;;;7.55;85.87
25420;BME280;13354;48.174;11.566;2023-11-21T06:57:17;95231.69;;;7.75;85.18
25420;BME280;13354;48.174;11.566;2023-11-21T06:59:43;95224.03;;;7.80;84.31
25420;BME280;13354;48.174;11.566;2023-11-21T07:02:09;95226.13;;;7.85;84.33
25420;BME280;13354;48.174;11.566;2023-11-21T07:04:38;95231.56;;;7.83;84.10
25420;BME280;13354;48.174;11.566;2023-11-21T07:07:04;95237.50;;;7.70;83.56
25420;BME280;13354;48.174;11.566;2023-11-21T07:09:30;95236.41;;;7.65;84.11
25420;BME280;13354;48.174;11.566;2023-11-21T07:11:56;95237.59;;;7.77;83.77
25420;BME280;13354;48.174;11.566;2023-11-21T07:14:21;95245.88;;;7.74;83.27
25420;BME280;13354;48.174;11.566;2023-11-21T07:16:47;95245.22;;;7.72;83.84
25420;BME280;13354;48.174;11.566;2023-11-21T07:19:12;95245.72;;;7.97;82.90
25420;BME280;13354;48.174;11.566;2023-11-21T07:21:39;95247.81;;;7.87;82.75
25420;BME280;13354;48.174;11.566;2023-11-21T07:24:05;95241.81;;;7.93;83.02
25420;BME280;13354;48.174;11.566;2023-11-21T07:26:31;95242.72;;;8.00;83.06
25420;BME280;13354;48.174;11.566;2023-11-21T07:28:57;95255.38;;;7.90;83.23
25420;BME280;13354;48.174;11.566;2023-11-21T07:31:22;95254.00;;;7.94;83.11
25420;BME280;13354;48.174;11.566;2023-11-21T07:33:49;95252.66;;;7.83;82.53
25420;BME280;13354;48.174;11.566;2023-11-21T07:36:15;95258.84;;;7.75;82.84
25420;BME280;13354;48.174;11.566;2023-11-21T07:38:42;95260.28;;;7.93;82.57
25420;BME280;13354;48.174;11.566;2023-11-21T07:41:08;95260.03;;;7.73;83.65
25420;BME280;13354;48.174;11.566;2023-11-21T07:43:35;95262.69;;;7.58;83.46
25420;BME280;13354;48.174;11.566;2023-11-21T07:46:04;95255.16;;;7.55;83.31
25420;BME280;13354;48.174;11.566;2023-11-21T07:48:30;95258.69;;;7.62;83.49
25420;BME280;13354;48.174;11.566;2023-11-21T07:50:57;95263.53;;;7.59;83.13
25420;BME280;13354;48.174;11.566;2023-11-21T07:53:24;95260.69;;;7.60;83.49
25420;BME280;13354;48.174;11.566;2023-11-21T07:55:50;95264.41;;;7.66;83.15
25420;BME280;13354;48.174;11.566;2023-11-21T07:58:15;95261.31;;;7.77;82.43
25420;BME280;13354;48.174;11.566;2023-11-21T08:00:41;95252.03;;;8.03;82.19
25420;BME280;13354;48.174;11.566;2023-11-21T08:03:07;95265.63;;;7.99;81.74
25420;BME280;13354;48.174;11.566;2023-11-21T08:05:32;95261.69;;;8.10;80.70
25420;BME280;13354;48.174;11.566;2023-11-21T08:07:58;95248.53;;;8.17;80.53
25420;BME280;13354;48.174;11.566;2023-11-21T08:10:23;95257.03;;;8.12;80.26
25420;BME280;13354;48.174;11.566;2023-11-21T08:12:48;95259.75;;;8.19;79.64
25420;BME280;13354;48.174;11.566;2023-11-21T08:15:15;95263.19;;;8.19;79.44
25420;BME280;13354;48.174;11.566;2023-11-21T08:17:41;95261.50;;;8.33;78.97
25420;BME280;13354;48.174;11.566;2023-11-21T08:20:06;95270.97;;;8.28;79.35
25420;BME280;13354;48.174;11.566;2023-11-21T08:22:33;95263.78;;;8.36;79.49
25420;BME280;13354;48.174;11.566;2023-11-21T08:24:59;95268.06;;;8.37;79.29
25420;BME280;13354;48.174;11.566;2023-11-21T08:27:25;95273.44;;;8.29;79.41
25420;BME280;13354;48.174;11.566;2023-11-21T08:29:50;95273.84;;;8.11;79.37
25420;BME280;13354;48.174;11.566;2023-11-21T08:32:17;95274.38;;;8.21;78.88
25420;BME280;13354;48.174;11.566;2023-11-21T08:34:43;95269.03;;;8.15;79.62
25420;BME280;13354;48.174;11.566;2023-11-21T08:37:09;95273.72;;;8.19;79.88
25420;BME280;13354;48.174;11.566;2023-11-21T08:39:36;95268.06;;;8.37;79.41
25420;BME280;13354;48.174;11.566;2023-11-21T08:42:03;95268.53;;;8.26;78.50
25420;BME280;13354;48.174;11.566;2023-11-21T08:44:28;95268.16;;;8.29;78.95
25420;BME280;13354;48.174;11.566;2023-11-21T08:46:55;95267.50;;;8.42;79.20
25420;BME280;13354;48.174;11.566;2023-11-21T08:49:21;95263.03;;;8.42;79.30
25420;BME280;13354;48.174;11.566;2023-11-21T08:51:46;95268.69;;;8.39;79.21
25420;BME280;13354;48.174;11.566;2023-11-21T08:54:11;95273.28;;;8.52;78.54
25420;BME280;13354;48.174;11.566;2023-11-21T08:56:37;95268.06;;;8.59;78.26
25420;BME280;13354;48.174;11.566;2023-11-21T08:59:03;95271.38;;;8.67;78.57
25420;BME280;13354;48.174;11.566;2023-11-21T09:01:29;95273.84;;;8.69;77.38
25420;BME280;13354;48.174;11.566;2023-11-21T09:03:59;95279.16;;;8.76;77.19
25420;BME280;13354;48.174;11.566;2023-11-21T09:06:24;95278.88;;;8.64;77.56
25420;BME280;13354;48.174;11.566;2023-11-21T09:08:50;95272.31;;;8.81;77.28
25420;BME280;13354;48.174;11.566;2023-11-21T09:11:15;95282.72;;;8.89;77.50
25420;BME280;13354;48.174;11.566;2023-11-21T09:13:40;95283.69;;;8.82;76.93
25420;BME280;13354;48.174;11.566;2023-11-21T09:16:06;95282.66;;;8.83;76.90
25420;BME280;13354;48.174;11.566;2023-11-21T09:18:32;95287.41;;;8.87;77.10
25420;BME280;13354;48.174;11.566;2023-11-21T09:20:57;95292.41;;;9.04;77.19
25420;BME280;13354;48.174;11.566;2023-11-21T09:23:24;95286.47;;;9.02;76.53
25420;BME280;13354;48.174;11.566;2023-11-21T09:25:49;95292.59;;;9.02;76.16
25420;BME280;13354;48.174;11.566;2023-11-21T09:28:15;95297.53;;;9.12;76.15
25420;BME280;13354;48.174;11.566;2023-11-21T09:30:40;95300.53;;;9.02;76.34
25420;BME280;13354;48.174;11.566;2023-11-21T09:33:06;95296.13;;;9.16;76.71
25420;BME280;13354;48.174;11.566;2023-11-21T09:35:32;95301.34;;;9.09;76.16
25420;BME280;13354;48.174;11.566;2023-11-21T09:37:57;95307.94;;;9.20;76.79
25420;BME280;13354;48.174;11.566;2023-11-21T09:40:23;95308.09;;;9.12;76.57
25420;BME280;13354;48.174;11.566;2023-11-21T09:42:55;95301.25;;;9.24;76.26
25420;BME280;13354;48.174;11.566;2023-11-21T09:45:28;95309.13;;;9.46;75.96
25420;BME280;13354;48.174;11.566;2023-11-21T09:47:55;95303.41;;;9.42;75.94
25420;BME280;13354;48.174;11.566;2023-11-21T09:50:21;95287.94;;;9.74;75.02
25420;BME280;13354;48.174;11.566;2023-11-21T09:55:44;95293.28;;;10.28;73.81
25420;BME280;13354;48.174;11.566;2023-11-21T09:58:10;95293.41;;;10.13;73.14
25420;BME280;13354;48.174;11.566;2023-11-21T10:00:48;95294.78;;;10.03;72.43
25420;BME280;13354;48.174;11.566;2023-11-21T10:03:13;95292.13;;;9.96;72.89
25420;BME280;13354;48.174;11.566;2023-11-21T10:05:41;95290.09;;;9.98;72.73
25420;BME280;13354;48.174;11.566;2023-11-21T10:08:10;95294.53;;;9.91;72.60
25420;BME280;13354;48.174;11.566;2023-11-21T10:10:37;95296.69;;;9.74;73.06
25420;BME280;13354;48.174;11.566;2023-11-21T10:13:06;95306.16;;;9.55;74.26
25420;BME280;13354;48.174;11.566;2023-11-21T10:15:35;95300.47;;;9.58;74.14
25420;BME280;13354;48.174;11.566;2023-11-21T10:18:02;95301.41;;;9.44;74.85
25420;BME280;13354;48.174;11.566;2023-11-21T10:20:28;95299.78;;;9.43;75.46
25420;BME280;13354;48.174;11.566;2023-11-21T10:22:54;95288.69;;;9.61;75.23
25420;BME280;13354;48.174;11.566;2023-11-21T10:25:22;95300.69;;;9.63;74.59
25420;BME280;13354;48.174;11.566;2023-11-21T10:27:48;95296.81;;;9.59;74.57
25420;BME280;13354;48.174;11.566;2023-11-21T10:30:17;95306.75;;;9.51;75.19
25420;BME280;13354;48.174;11.566;2023-11-21T10:32:43;95299.63;;;9.51;75.34
25420;BME280;13354;48.174;11.566;2023-11-21T10:35:09;95303.78;;;9.67;75.11
25420;BME280;13354;48.174;11.566;2023-11-21T10:37:41;95294.47;;;9.78;75.21
25420;BME280;13354;48.174;11.566;2023-11-21T10:40:10;95302.75;;;9.68;75.33
25420;BME280;13354;48.174;11.566;2023-11-21T10:42:39;95305.75;;;9.58;75.86
25420;BME280;13354;48.174;11.566;2023-11-21T10:45:06;95309.00;;;9.60;76.01
25420;BME280;13354;48.174;11.566;2023-11-21T10:47:39;95309.31;;;9.79;75.74
25420;BME280;13354;48.174;11.566;2023-11-21T10:50:05;95310.41;;;9.56;75.42
25420;BME280;13354;48.174;11.566;2023-11-21T10:52:30;95307.38;;;9.59;75.60
25420;BME280;13354;48.174;11.566;2023-11-21T10:54:56;95307.88;;;9.70;75.57
25420;BME280;13354;48.174;11.566;2023-11-21T10:57:24;95298.13;;;9.77;75.63
25420;BME280;13354;48.174;11.566;2023-11-21T10:59:54;95295.97;;;9.87;75.43
25420;BME280;13354;48.174;11.566;2023-11-21T11:02:26;95291.44;;;9.81;75.60
25420;BME280;13354;48.174;11.566;2023-11-21T11:04:53;95292.97;;;9.62;76.38
25420;BME280;13354;48.174;11.566;2023-11-21T11:07:21;95288.19;;;9.85;76.30
25420;BME280;13354;48.174;11.566;2023-11-21T11:09:51;95287.91;;;10.15;75.75
25420;BME280;13354;48.174;11.566;2023-11-21T11:12:17;95286.41;;;10.47;74.58
25420;BME280;13354;48.174;11.566;2023-11-21T11:14:44;95285.19;;;10.43;73.10
25420;BME280;13354;48.174;11.566;2023-11-21T11:17:10;95287.59;;;10.31;73.72
25420;BME280;13354;48.174;11.566;2023-11-21T11:19:36;95291.66;;;10.27;73.38
25420;BME280;13354;48.174;11.566;2023-11-21T11:30:21;95299.91;;;10.11;74.02
25420;BME280;13354;48.174;11.566;2023-11-21T11:33:31;95289.91;;;10.00;74.36
25420;BME280;13354;48.174;11.566;2023-11-21T11:36:15;95290.53;;;10.02;74.36
25420;BME280;13354;48.174;11.566;2023-11-21T11:38:46;95292.94;;;9.97;74.47
25420;BME280;13354;48.174;11.566;2023-11-21T11:41:11;95295.00;;;10.08;74.39
25420;BME280;13354;48.174;11.566;2023-11-21T11:43:38;95296.00;;;10.00;73.83
25420;BME280;13354;48.174;11.566;2023-11-21T11:46:10;95282.50;;;9.82;73.47
25420;BME280;13354;48.174;11.566;2023-11-21T11:48:39;95282.94;;;9.92;73.86
25420;BME280;13354;48.174;11.566;2023-11-21T11:51:11;95282.53;;;9.88;73.68
25420;BME280;13354;48.174;11.566;2023-11-21T11:53:43;95285.56;;;9.85;73.21
25420;BME280;13354;48.174;11.566;2023-11-21T11:56:31;95289.25;;;9.91;72.43
25420;BME280;13354;48.174;11.566;2023-11-21T11:59:01;95283.00;;;10.05;71.56
25420;BME280;13354;48.174;11.566;2023-11-21T12:01:34;95282.78;;;10.00;71.54
25420;BME280;13354;48.174;11.566;2023-11-21T12:06:42;95281.56;;;10.03;71.94
25420;BME280;13354;48.174;11.566;2023-11-21T12:09:17;95282.22;;;10.18;72.16
25420;BME280;13354;48.174;11.566;2023-11-21T12:11:43;95279.19;;;10.21;71.24
25420;BME280;13354;48.174;11.566;2023-11-21T12:14:09;95284.44;;;10.14;71.43
25420;BME280;13354;48.174;11.566;2023-11-21T12:16:35;95288.91;;;10.07;71.53
25420;BME280;13354;48.174;11.566;2023-11-21T12:19:00;95279.25;;;10.28;71.43
25420;BME280;13354;48.174;11.566;2023-11-21T12:21:26;95292.47;;;10.28;71.78
25420;BME280;13354;48.174;11.566;2023-11-21T12:23:52;95282.31;;;10.31;71.57
25420;BME280;13354;48.174;11.566;2023-11-21T12:26:18;95282.28;;;10.38;71.84
25420;BME280;13354;48.174;11.566;2023-11-21T12:28:43;95285.59;;;10.60;71.41
25420;BME280;13354;48.174;11.566;2023-11-21T12:31:08;95289.66;;;10.56;70.82
25420;BME280;13354;48.174;11.566;2023-11-21T12:33:34;95276.63;;;10.48;70.40
25420;BME280;13354;48.174;11.566;2023-11-21T12:36:00;95280.69;;;10.37;71.36
25420;BME280;13354;48.174;11.566;2023-11-21T12:38:33;95285.75;;;10.32;71.49
25420;BME280;13354;48.174;11.566;2023-11-21T12:41:00;95278.69;;;10.46;71.09
25420;BME280;13354;48.174;11.566;2023-11-21T12:43:25;95278.97;;;10.23;72.06
25420;BME280;13354;48.174;11.566;2023-11-21T12:46:04;95286.38;;;10.27;72.06
25420;BME280;13354;48.174;11.566;2023-11-21T12:48:31;95284.47;;;10.21;72.41
25420;BME280;13354;48.174;11.566;2023-11-21T12:50:57;95293.69;;;10.32;72.28
25420;BME280;13354;48.174;11.566;2023-11-21T12:53:26;95291.94;;;10.04;73.61
25420;BME280;13354;48.174;11.566;2023-11-21T12:55:51;95296.09;;;9.79;74.92
25420;BME280;13354;48.174;11.566;2023-11-21T12:58:17;95297.59;;;9.88;74.40
25420;BME280;13354;48.174;11.566;2023-11-21T13:00:47;95298.44;;;9.95;74.63
25420;BME280;13354;48.174;11.566;2023-11-21T13:03:15;95293.50;;;9.85;75.28
25420;BME280;13354;48.174;11.566;2023-11-21T13:05:43;95299.63;;;9.92;75.21
25420;BME280;13354;48.174;11.566;2023-11-21T13:08:12;95296.34;;;9.84;75.95
25420;BME280;13354;48.174;11.566;2023-11-21T13:10:42;95299.88;;;9.63;77.46